Time;durP1;ratioP1;P1;durP2;ratioP2;P2;SDS_P1;SDS_P2;PMS_P1;PMS_P2;Temp;Humidity;BMP_temperature;BMP_pressure;BME280_temperature;BME280_humidity;BME280_pressure;Samples;Min_cycle;Max_cycle;Signal;HPM_P1;HPM_P2
2022/12/11 00:02:07;;;;;;;32.17;14.10;;;;;;;;;;5030897;28;20076;-75
2022/12/11 00:04:33;;;;;;;31.55;14.48;;;;;;;;;;5030924;28;20103;-75
2022/12/11 00:06:59;;;;;;;37.92;13.43;;;;;;;;;;5031124;28;20513;-76
2022/12/11 00:09:25;;;;;;;49.00;17.67;;;;;;;;;;5013257;28;20045;-75
2022/12/11 00:11:51;;;;;;;33.08;14.50;;;;;;;;;;4997436;28;20068;-74
2022/12/11 00:14:17;;;;;;;35.42;13.27;;;;;;;;;;5030741;28;20191;-76
2022/12/11 00:16:43;;;;;;;37.38;14.23;;;;;;;;;;5012784;28;20116;-76
2022/12/11 00:19:09;;;;;;;44.38;14.38;;;;;;;;;;5013015;28;20045;-76
2022/12/11 00:21:35;;;;;;;37.00;15.40;;;;;;;;;;5032002;28;20084;-76
2022/12/11 00:24:01;;;;;;;52.60;16.75;;;;;;;;;;5013828;28;20081;-77
2022/12/11 00:26:27;;;;;;;51.95;17.63;;;;;;;;;;5031320;28;20045;-76
2022/12/11 00:28:54;;;;;;;46.78;15.40;;;;;;;;;;5031779;28;20045;-75
2022/12/11 00:31:20;;;;;;;82.35;17.23;;;;;;;;;;5013093;28;20037;-76
2022/12/11 00:33:50;;;;;;;83.32;16.70;;;;;;;;;;5013850;28;20053;-76
2022/12/11 00:36:20;;;;;;;101.82;16.50;;;;;;;;;;5013572;28;20095;-76
2022/12/11 00:38:46;;;;;;;95.32;18.65;;;;;;;;;;5013305;28;20099;-77
2022/12/11 00:41:12;;;;;;;88.25;20.10;;;;;;;;;;5012738;28;20045;-77
2022/12/11 00:43:38;;;;;;;77.88;18.00;;;;;;;;;;5013030;28;20429;-77
2022/12/11 00:46:04;;;;;;;75.13;17.52;;;;;;;;;;5029270;28;20421;-77
2022/12/11 00:48:30;;;;;;;128.45;20.58;;;;;;;;;;5030111;28;20049;-74
2022/12/11 00:50:56;;;;;;;210.32;23.10;;;;;;;;;;5030880;28;20116;-77
2022/12/11 00:53:22;;;;;;;98.78;20.60;;;;;;;;;;5013393;28;20576;-78
2022/12/11 00:55:48;;;;;;;91.45;19.70;;;;;;;;;;5012801;28;20049;-77
2022/12/11 00:58:14;;;;;;;212.30;22.17;;;;;;;;;;5030288;28;20151;-76
2022/12/11 01:00:40;;;;;;;85.75;19.98;;;;;;;;;;5028375;28;20041;-77
2022/12/11 01:03:06;;;;;;;84.15;19.45;;;;;;;;;;4996091;28;20050;-77
2022/12/11 01:05:33;;;;;;;399.08;26.98;;;;;;;;;;5012155;28;20033;-77
2022/12/11 01:08:01;;;;;;;164.77;21.15;;;;;;;;;;5012337;28;20045;-76
2022/12/11 01:10:27;;;;;;;491.63;30.52;;;;;;;;;;5030795;28;20030;-78
2022/12/11 01:12:56;;;;;;;562.17;33.85;;;;;;;;;;5012769;28;20076;-76
2022/12/11 01:15:22;;;;;;;293.85;23.20;;;;;;;;;;5012762;28;20057;-79
2022/12/11 01:17:49;;;;;;;317.48;25.00;;;;;;;;;;5030022;28;20045;-77
2022/12/11 01:20:14;;;;;;;143.60;22.90;;;;;;;;;;4996470;28;20041;-74
2022/12/11 01:22:41;;;;;;;99.78;20.23;;;;;;;;;;5029858;28;20083;-76
2022/12/11 01:25:08;;;;;;;183.82;23.35;;;;;;;;;;5011790;28;20057;-76
2022/12/11 01:27:35;;;;;;;136.38;22.58;;;;;;;;;;5012206;28;20136;-75
2022/12/11 01:30:01;;;;;;;217.13;24.95;;;;;;;;;;5011946;28;20042;-77
2022/12/11 01:32:29;;;;;;;259.00;24.75;;;;;;;;;;5029549;28;20048;-74
2022/12/11 01:34:55;;;;;;;289.25;24.50;;;;;;;;;;4995727;28;20049;-75
2022/12/11 01:37:21;;;;;;;141.18;20.70;;;;;;;;;;5029268;28;20033;-77
2022/12/11 01:39:47;;;;;;;401.25;27.77;;;;;;;;;;5029071;28;20069;-76
2022/12/11 01:42:15;;;;;;;266.63;24.02;;;;;;;;;;5028950;28;20061;-73
2022/12/11 01:44:41;;;;;;;318.02;24.25;;;;;;;;;;5011230;28;20601;-74
2022/12/11 01:47:07;;;;;;;694.83;37.80;;;;;;;;;;5027520;28;20076;-74
2022/12/11 01:49:33;;;;;;;333.42;26.65;;;;;;;;;;5011272;28;20069;-74
2022/12/11 01:52:04;;;;;;;345.08;22.98;;;;;;;;;;5010971;28;20046;-75
2022/12/11 01:54:30;;;;;;;363.42;26.05;;;;;;;;;;5010898;28;20049;-74
2022/12/11 01:56:57;;;;;;;349.88;24.13;;;;;;;;;;4995996;28;20049;-74
2022/12/11 01:59:24;;;;;;;316.98;26.08;;;;;;;;;;5031858;28;20048;-73
2022/12/11 02:01:54;;;;;;;399.67;23.25;;;;;;;;;;5031468;28;20196;-74
2022/12/11 02:04:20;;;;;;;387.00;26.08;;;;;;;;;;5013962;28;20517;-73
2022/12/11 02:06:47;;;;;;;392.52;25.00;;;;;;;;;;4997154;28;20045;-75
2022/12/11 02:09:13;;;;;;;239.82;21.73;;;;;;;;;;5013847;28;20062;-75
2022/12/11 02:11:49;;;;;;;206.60;20.65;;;;;;;;;;5030723;28;20049;-75
2022/12/11 02:14:24;;;;;;;202.13;20.48;;;;;;;;;;5031494;28;20136;-75
2022/12/11 02:16:54;;;;;;;197.30;18.40;;;;;;;;;;5030888;28;20049;-73
2022/12/11 02:19:35;;;;;;;217.00;17.70;;;;;;;;;;5031212;28;20044;-74
2022/12/11 02:22:01;;;;;;;404.50;22.25;;;;;;;;;;5013094;28;20657;-73
2022/12/11 02:24:27;;;;;;;552.42;27.65;;;;;;;;;;5013480;28;20047;-74
2022/12/11 02:27:11;;;;;;;618.63;26.08;;;;;;;;;;5030709;28;20041;-71
2022/12/11 02:29:39;;;;;;;410.52;21.17;;;;;;;;;;5030554;28;20037;-73
2022/12/11 02:32:09;;;;;;;361.38;22.40;;;;;;;;;;5013075;28;20079;-72
2022/12/11 02:34:40;;;;;;;228.15;21.83;;;;;;;;;;5022005;28;20060;-73
2022/12/11 02:37:10;;;;;;;253.60;21.13;;;;;;;;;;5009723;28;20042;-74
2022/12/11 02:39:37;;;;;;;224.88;18.38;;;;;;;;;;4993062;28;20057;-75
2022/12/11 02:42:03;;;;;;;181.00;21.85;;;;;;;;;;4977025;28;20038;-73
2022/12/11 02:44:29;;;;;;;348.55;20.85;;;;;;;;;;4993489;28;20050;-72
2022/12/11 02:46:56;;;;;;;340.63;22.48;;;;;;;;;;5010724;28;20489;-73
2022/12/11 02:49:22;;;;;;;163.57;17.17;;;;;;;;;;4993684;28;20462;-74
2022/12/11 02:51:48;;;;;;;233.52;18.42;;;;;;;;;;5011037;28;20533;-73
2022/12/11 02:54:15;;;;;;;436.88;25.27;;;;;;;;;;5011253;28;20081;-74
2022/12/11 02:56:46;;;;;;;250.80;18.02;;;;;;;;;;4978371;28;20104;-73
2022/12/11 02:59:14;;;;;;;868.75;36.20;;;;;;;;;;4999113;28;20041;-72
2022/12/11 03:01:40;;;;;;;184.00;16.95;;;;;;;;;;5017350;28;20044;-73
2022/12/11 03:04:06;;;;;;;266.95;20.65;;;;;;;;;;4998097;28;20076;-73
2022/12/11 03:06:36;;;;;;;134.48;17.42;;;;;;;;;;5012301;28;20069;-72
2022/12/11 03:09:03;;;;;;;212.77;21.10;;;;;;;;;;5009786;28;20577;-72
2022/12/11 03:11:29;;;;;;;516.75;24.40;;;;;;;;;;5009409;28;20584;-71
2022/12/11 03:13:55;;;;;;;176.00;19.42;;;;;;;;;;5010444;28;20104;-73
2022/12/11 03:16:35;;;;;;;205.30;19.52;;;;;;;;;;4992832;28;20133;-71
2022/12/11 03:19:05;;;;;;;116.93;14.75;;;;;;;;;;4976497;28;20088;-71
2022/12/11 03:21:32;;;;;;;167.70;17.73;;;;;;;;;;4992411;28;20050;-72
2022/12/11 03:24:09;;;;;;;164.52;18.02;;;;;;;;;;4992158;28;20288;-71
2022/12/11 03:26:40;;;;;;;224.75;17.15;;;;;;;;;;4992383;28;20042;-73
2022/12/11 03:29:13;;;;;;;155.27;17.48;;;;;;;;;;4992318;28;20045;-70
2022/12/11 03:31:47;;;;;;;298.48;23.20;;;;;;;;;;5009455;28;20046;-69
2022/12/11 03:34:33;;;;;;;291.15;21.10;;;;;;;;;;4991916;28;20053;-68
2022/12/11 03:36:59;;;;;;;561.35;28.67;;;;;;;;;;5008698;28;20073;-68
2022/12/11 03:39:29;;;;;;;208.95;18.70;;;;;;;;;;5009988;28;20455;-70
2022/12/11 03:41:55;;;;;;;233.53;18.23;;;;;;;;;;5011453;28;20041;-70
2022/12/11 03:44:21;;;;;;;114.00;18.77;;;;;;;;;;5011883;28;20056;-71
2022/12/11 03:46:48;;;;;;;441.60;25.48;;;;;;;;;;5029147;28;20041;-70
2022/12/11 03:49:15;;;;;;;325.60;21.08;;;;;;;;;;5029223;28;20047;-69
2022/12/11 03:51:41;;;;;;;270.80;22.83;;;;;;;;;;5011328;28;20049;-70
2022/12/11 03:54:07;;;;;;;294.77;24.75;;;;;;;;;;5028932;28;20115;-70
2022/12/11 03:56:33;;;;;;;399.45;25.02;;;;;;;;;;5028953;28;20038;-69
2022/12/11 03:58:59;;;;;;;372.60;30.85;;;;;;;;;;5011208;28;20045;-69
2022/12/11 04:01:25;;;;;;;446.88;39.65;;;;;;;;;;5027579;28;20506;-71
2022/12/11 04:03:51;;;;;;;321.02;27.05;;;;;;;;;;5011025;28;20430;-69
2022/12/11 04:06:17;;;;;;;696.63;39.03;;;;;;;;;;5028733;28;20052;-71
2022/12/11 04:08:43;;;;;;;143.68;19.05;;;;;;;;;;5028471;28;20049;-69
2022/12/11 04:16:38;;;;;;;146.32;22.70;;;;;;;;;;5028644;28;20052;-70
2022/12/11 04:24:46;;;;;;;329.65;24.48;;;;;;;;;;5010720;28;20100;-72
2022/12/11 04:27:12;;;;;;;435.95;29.77;;;;;;;;;;5028432;28;20513;-71
2022/12/11 04:29:38;;;;;;;253.02;31.15;;;;;;;;;;5028633;28;20038;-69
2022/12/11 04:32:04;;;;;;;211.60;24.85;;;;;;;;;;5028031;28;20128;-71
2022/12/11 04:34:30;;;;;;;260.55;28.88;;;;;;;;;;5028309;28;20063;-72
2022/12/11 04:36:56;;;;;;;208.38;26.35;;;;;;;;;;5028104;28;20187;-72
2022/12/11 04:39:22;;;;;;;231.77;24.52;;;;;;;;;;5028184;28;20565;-71
2022/12/11 04:41:48;;;;;;;218.23;24.95;;;;;;;;;;5010418;28;20037;-71
2022/12/11 04:44:14;;;;;;;167.15;24.98;;;;;;;;;;5028127;28;20506;-72
2022/12/11 04:46:40;;;;;;;179.93;19.48;;;;;;;;;;5028109;28;20041;-71
2022/12/11 04:49:06;;;;;;;625.38;38.70;;;;;;;;;;5028010;28;20042;-71
2022/12/11 04:51:32;;;;;;;511.17;34.13;;;;;;;;;;5028215;28;20076;-73
2022/12/11 04:53:58;;;;;;;187.18;31.85;;;;;;;;;;5027894;28;20088;-71
2022/12/11 04:56:24;;;;;;;346.08;34.08;;;;;;;;;;5027950;28;20065;-71
2022/12/11 04:58:50;;;;;;;159.20;31.75;;;;;;;;;;5027961;28;20543;-72
2022/12/11 05:01:17;;;;;;;433.48;43.80;;;;;;;;;;5027886;28;20080;-72
2022/12/11 05:03:43;;;;;;;141.13;31.63;;;;;;;;;;5027757;28;20045;-71
2022/12/11 05:06:09;;;;;;;129.20;25.88;;;;;;;;;;5027854;28;20633;-73
2022/12/11 05:08:36;;;;;;;347.17;36.20;;;;;;;;;;5027893;28;20049;-72
2022/12/11 05:11:02;;;;;;;268.88;44.10;;;;;;;;;;5027575;28;20060;-72
2022/12/11 05:13:28;;;;;;;183.00;26.95;;;;;;;;;;5028046;28;20041;-75
2022/12/11 05:15:54;;;;;;;307.42;34.58;;;;;;;;;;5027582;28;20151;-76
2022/12/11 05:18:20;;;;;;;205.38;39.13;;;;;;;;;;5027867;28;20069;-74
2022/12/11 05:20:59;;;;;;;446.20;41.88;;;;;;;;;;5027341;28;20076;-74
2022/12/11 05:23:25;;;;;;;193.35;33.90;;;;;;;;;;5027988;28;20052;-74
2022/12/11 05:25:52;;;;;;;482.50;40.03;;;;;;;;;;5027509;28;20049;-74
2022/12/11 05:28:18;;;;;;;336.30;50.92;;;;;;;;;;5028024;28;20388;-75
2022/12/11 05:30:44;;;;;;;198.95;29.23;;;;;;;;;;5027556;28;20046;-75
2022/12/11 05:33:10;;;;;;;328.08;41.13;;;;;;;;;;5031187;28;20046;-74
2022/12/11 05:35:36;;;;;;;186.05;26.23;;;;;;;;;;5014409;28;20511;-76
2022/12/11 05:38:02;;;;;;;279.83;28.52;;;;;;;;;;5031421;28;20056;-75
2022/12/11 05:40:28;;;;;;;301.75;30.77;;;;;;;;;;5013863;28;20144;-76
2022/12/11 05:42:54;;;;;;;159.50;24.25;;;;;;;;;;5031308;28;20569;-74
2022/12/11 05:45:19;;;;;;;239.75;26.60;;;;;;;;;;5031374;28;20049;-75
2022/12/11 05:47:45;;;;;;;165.80;32.47;;;;;;;;;;5013465;28;20044;-74
2022/12/11 05:50:11;;;;;;;195.57;24.92;;;;;;;;;;5013639;28;20046;-76
2022/12/11 05:52:38;;;;;;;156.38;21.80;;;;;;;;;;5031474;28;20053;-74
2022/12/11 05:55:04;;;;;;;129.82;21.08;;;;;;;;;;5013534;28;20085;-75
2022/12/11 05:57:30;;;;;;;268.40;31.85;;;;;;;;;;5031239;28;20117;-75
2022/12/11 05:59:56;;;;;;;171.57;25.33;;;;;;;;;;5013489;28;20052;-75
2022/12/11 06:02:22;;;;;;;145.95;28.92;;;;;;;;;;5031362;28;20041;-75
2022/12/11 06:04:48;;;;;;;156.77;28.23;;;;;;;;;;5031369;28;20045;-74
2022/12/11 06:07:14;;;;;;;399.00;43.35;;;;;;;;;;5032025;28;20037;-75
2022/12/11 06:09:40;;;;;;;159.07;41.85;;;;;;;;;;4997836;28;20485;-79
2022/12/11 06:12:07;;;;;;;137.43;28.50;;;;;;;;;;4981028;28;20528;-80
2022/12/11 06:14:33;;;;;;;96.82;22.48;;;;;;;;;;5014480;28;20045;-79
2022/12/11 06:17:00;;;;;;;114.85;29.90;;;;;;;;;;5013179;28;20797;-79
2022/12/11 06:19:26;;;;;;;97.18;24.17;;;;;;;;;;5016964;28;20049;-81
2022/12/11 06:21:52;;;;;;;116.40;40.42;;;;;;;;;;5007853;28;20430;-80
2022/12/11 06:24:18;;;;;;;68.75;22.85;;;;;;;;;;5030107;28;20042;-81
2022/12/11 06:26:44;;;;;;;74.45;22.27;;;;;;;;;;5030596;28;20056;-81
2022/12/11 06:29:10;;;;;;;67.40;21.55;;;;;;;;;;5014640;28;20040;-82
2022/12/11 06:31:35;;;;;;;93.88;28.45;;;;;;;;;;5001627;28;20045;-83
2022/12/11 06:34:02;;;;;;;75.00;23.98;;;;;;;;;;5013273;28;20042;-82
2022/12/11 06:36:28;;;;;;;79.70;29.45;;;;;;;;;;5012842;28;20120;-80
2022/12/11 06:38:54;;;;;;;79.50;23.48;;;;;;;;;;5026422;28;20188;-79
2022/12/11 06:41:21;;;;;;;104.05;36.05;;;;;;;;;;4995181;28;20340;-78
2022/12/11 06:43:47;;;;;;;90.88;26.88;;;;;;;;;;5027473;28;20084;-79
2022/12/11 06:46:13;;;;;;;106.97;32.85;;;;;;;;;;5028376;28;20452;-76
2022/12/11 06:48:41;;;;;;;84.93;24.73;;;;;;;;;;5029758;28;20046;-79
2022/12/11 06:51:11;;;;;;;79.45;24.33;;;;;;;;;;5008383;28;20037;-77
2022/12/11 06:53:37;;;;;;;86.35;30.65;;;;;;;;;;5012242;28;20037;-77
2022/12/11 06:56:07;;;;;;;88.88;27.00;;;;;;;;;;5026795;28;20068;-79
2022/12/11 06:58:33;;;;;;;69.65;23.75;;;;;;;;;;5011847;28;20623;-78
2022/12/11 07:00:59;;;;;;;76.57;22.58;;;;;;;;;;5011076;28;20037;-76
2022/12/11 07:03:25;;;;;;;85.30;24.88;;;;;;;;;;5011104;28;20140;-74
2022/12/11 07:05:51;;;;;;;95.22;27.67;;;;;;;;;;5028859;28;20124;-75
2022/12/11 07:08:17;;;;;;;99.75;30.85;;;;;;;;;;5027064;28;20033;-75
2022/12/11 07:10:43;;;;;;;72.03;23.80;;;;;;;;;;5028798;28;20037;-74
2022/12/11 07:13:09;;;;;;;82.93;24.98;;;;;;;;;;4994331;28;20029;-75
2022/12/11 07:15:35;;;;;;;76.82;23.90;;;;;;;;;;5010004;28;20103;-75
2022/12/11 07:18:02;;;;;;;98.80;29.48;;;;;;;;;;5008600;28;20040;-74
2022/12/11 07:20:28;;;;;;;72.20;21.23;;;;;;;;;;5029338;28;20848;-76
2022/12/11 07:22:54;;;;;;;85.68;33.47;;;;;;;;;;5009180;28;20115;-75
2022/12/11 07:25:20;;;;;;;89.30;37.80;;;;;;;;;;5009330;28;20049;-77
2022/12/11 07:27:46;;;;;;;90.30;34.15;;;;;;;;;;5025920;28;20033;-76
2022/12/11 07:30:12;;;;;;;88.65;27.52;;;;;;;;;;5010653;28;20041;-75
2022/12/11 07:32:38;;;;;;;95.07;31.75;;;;;;;;;;5028820;28;20030;-75
2022/12/11 07:35:04;;;;;;;74.88;27.80;;;;;;;;;;5010754;28;20131;-76
2022/12/11 07:37:30;;;;;;;71.45;26.10;;;;;;;;;;4994516;28;20409;-76
2022/12/11 07:39:56;;;;;;;78.93;25.17;;;;;;;;;;5011069;28;20041;-76
2022/12/11 07:42:22;;;;;;;69.65;23.73;;;;;;;;;;4994590;28;20106;-76
2022/12/11 07:44:48;;;;;;;81.30;27.95;;;;;;;;;;4993933;28;20140;-77
2022/12/11 07:47:14;;;;;;;64.25;26.58;;;;;;;;;;5026569;28;20049;-75
2022/12/11 07:49:40;;;;;;;85.45;25.17;;;;;;;;;;5009232;28;20072;-73
2022/12/11 07:52:06;;;;;;;99.43;35.47;;;;;;;;;;5026628;28;20041;-74
2022/12/11 07:54:32;;;;;;;85.95;27.95;;;;;;;;;;4991251;28;20057;-74
2022/12/11 07:56:58;;;;;;;85.93;32.33;;;;;;;;;;4993236;28;20055;-73
2022/12/11 07:59:24;;;;;;;82.05;29.10;;;;;;;;;;5024807;28;20041;-74
2022/12/11 08:01:50;;;;;;;80.88;28.15;;;;;;;;;;5009554;28;20041;-74
2022/12/11 08:04:16;;;;;;;69.45;23.55;;;;;;;;;;4976718;28;20055;-74
2022/12/11 08:06:43;;;;;;;76.90;28.95;;;;;;;;;;4987433;28;20754;-74
2022/12/11 08:09:10;;;;;;;62.38;23.75;;;;;;;;;;5007014;28;20037;-75
2022/12/11 08:11:36;;;;;;;71.18;27.17;;;;;;;;;;5007540;28;20041;-75
2022/12/11 08:14:02;;;;;;;65.15;24.20;;;;;;;;;;5024667;28;20057;-75
2022/12/11 08:16:28;;;;;;;76.82;27.77;;;;;;;;;;4991349;28;20543;-75
2022/12/11 08:18:54;;;;;;;75.78;30.88;;;;;;;;;;4976605;28;20037;-75
2022/12/11 08:21:20;;;;;;;40.28;16.50;;;;;;;;;;5025468;28;20064;-74
2022/12/11 08:23:46;;;;;;;74.57;30.75;;;;;;;;;;5027153;28;20037;-75
2022/12/11 08:26:14;;;;;;;48.47;19.25;;;;;;;;;;4992415;28;20569;-74
2022/12/11 08:28:40;;;;;;;48.55;18.30;;;;;;;;;;5027429;28;20038;-75
2022/12/11 08:31:07;;;;;;;52.10;19.75;;;;;;;;;;5028678;28;20107;-75
2022/12/11 08:33:33;;;;;;;40.35;17.77;;;;;;;;;;5011124;28;20045;-75
2022/12/11 08:36:03;;;;;;;38.88;18.92;;;;;;;;;;5028036;28;20054;-76
2022/12/11 08:38:29;;;;;;;58.22;25.23;;;;;;;;;;5010988;28;20553;-75
2022/12/11 08:40:55;;;;;;;39.58;17.70;;;;;;;;;;5028385;28;20134;-76
2022/12/11 08:43:21;;;;;;;33.92;16.75;;;;;;;;;;4994585;28;20050;-74
2022/12/11 08:45:47;;;;;;;35.47;16.50;;;;;;;;;;5028908;28;20033;-75
2022/12/11 08:48:13;;;;;;;30.60;14.63;;;;;;;;;;5010508;28;20429;-74
2022/12/11 08:50:39;;;;;;;36.63;16.40;;;;;;;;;;5011026;28;20045;-74
2022/12/11 08:53:05;;;;;;;38.00;17.67;;;;;;;;;;4991209;28;20115;-74
2022/12/11 08:55:31;;;;;;;45.40;19.98;;;;;;;;;;5008762;28;20570;-75
2022/12/11 08:57:57;;;;;;;44.00;16.42;;;;;;;;;;5025760;28;20136;-75
2022/12/11 09:00:24;;;;;;;41.85;19.27;;;;;;;;;;5028945;28;20144;-74
2022/12/11 09:02:50;;;;;;;51.60;20.80;;;;;;;;;;4995481;28;20040;-75
2022/12/11 09:05:16;;;;;;;51.47;22.40;;;;;;;;;;5034507;28;20128;-74
2022/12/11 09:07:43;;;;;;;40.35;17.73;;;;;;;;;;5007799;28;20041;-74
2022/12/11 09:10:09;;;;;;;41.50;21.48;;;;;;;;;;5044636;28;20045;-74
2022/12/11 09:12:35;;;;;;;41.47;19.77;;;;;;;;;;5042650;28;20033;-74
2022/12/11 09:15:02;;;;;;;36.42;16.23;;;;;;;;;;5019206;28;20437;-74
2022/12/11 09:17:29;;;;;;;33.60;17.77;;;;;;;;;;5033540;28;20044;-75
2022/12/11 09:19:55;;;;;;;38.30;20.70;;;;;;;;;;5032608;28;20683;-75
2022/12/11 09:22:21;;;;;;;41.97;19.40;;;;;;;;;;5031856;28;20076;-74
2022/12/11 09:24:47;;;;;;;41.00;18.33;;;;;;;;;;5032284;28;20145;-74
2022/12/11 09:27:13;;;;;;;28.05;15.43;;;;;;;;;;5030483;28;20187;-74
2022/12/11 09:29:40;;;;;;;28.65;14.15;;;;;;;;;;5030118;28;20054;-74
2022/12/11 09:32:05;;;;;;;30.60;14.60;;;;;;;;;;5030702;28;20056;-74
2022/12/11 09:34:32;;;;;;;30.02;19.55;;;;;;;;;;5031873;28;20628;-75
2022/12/11 09:36:58;;;;;;;29.58;14.93;;;;;;;;;;5031654;28;20521;-75
2022/12/11 09:39:24;;;;;;;21.13;13.07;;;;;;;;;;5013815;28;20522;-75
2022/12/11 09:41:52;;;;;;;27.25;14.07;;;;;;;;;;4997634;28;20049;-74
2022/12/11 09:44:20;;;;;;;30.05;16.50;;;;;;;;;;5013527;28;20523;-74
2022/12/11 09:46:46;;;;;;;29.85;16.30;;;;;;;;;;5031442;28;20045;-75
2022/12/11 09:49:15;;;;;;;29.35;17.02;;;;;;;;;;5029846;28;20064;-75
2022/12/11 09:51:42;;;;;;;31.40;16.38;;;;;;;;;;5013384;28;20092;-75
2022/12/11 09:54:08;;;;;;;36.85;20.75;;;;;;;;;;5013518;28;20076;-75
2022/12/11 09:56:53;;;;;;;27.13;16.27;;;;;;;;;;4996938;28;20038;-74
2022/12/11 09:59:19;;;;;;;29.38;16.90;;;;;;;;;;5013260;28;20107;-72
2022/12/11 10:01:50;;;;;;;30.48;16.85;;;;;;;;;;5031022;28;20704;-72
2022/12/11 10:04:16;;;;;;;35.45;19.13;;;;;;;;;;5008567;28;20045;-71
2022/12/11 10:06:44;;;;;;;41.72;23.60;;;;;;;;;;5009048;28;20033;-72
2022/12/11 10:09:29;;;;;;;29.08;16.45;;;;;;;;;;4995728;28;20052;-72
2022/12/11 10:11:55;;;;;;;37.03;21.58;;;;;;;;;;5030005;28;20124;-71
2022/12/11 10:14:26;;;;;;;36.95;20.10;;;;;;;;;;5029665;28;20191;-72
2022/12/11 10:16:53;;;;;;;39.60;23.17;;;;;;;;;;5029936;28;20468;-72
2022/12/11 10:19:20;;;;;;;49.25;25.80;;;;;;;;;;4975665;28;20821;-72
2022/12/11 10:21:46;;;;;;;30.10;16.95;;;;;;;;;;4976078;28;20058;-72
2022/12/11 10:24:15;;;;;;;28.40;16.20;;;;;;;;;;5008666;28;20481;-72
2022/12/11 10:26:40;;;;;;;31.70;19.75;;;;;;;;;;5009982;28;20469;-71
2022/12/11 10:29:10;;;;;;;31.75;18.42;;;;;;;;;;5009006;28;20064;-72
2022/12/11 10:31:36;;;;;;;31.15;19.50;;;;;;;;;;5010475;28;20067;-72
2022/12/11 10:34:03;;;;;;;36.42;21.27;;;;;;;;;;5008953;28;20136;-72
2022/12/11 10:36:39;;;;;;;35.15;21.25;;;;;;;;;;5008465;28;20562;-72
2022/12/11 10:39:11;;;;;;;36.42;20.65;;;;;;;;;;5008234;28;20472;-71
2022/12/11 10:41:38;;;;;;;28.10;14.95;;;;;;;;;;5009000;28;20041;-72
2022/12/11 10:44:21;;;;;;;35.65;19.92;;;;;;;;;;5007054;28;20053;-71
2022/12/11 10:46:48;;;;;;;28.63;17.98;;;;;;;;;;5006193;28;20072;-71
2022/12/11 10:49:22;;;;;;;28.15;18.67;;;;;;;;;;5006401;28;20091;-71
2022/12/11 10:51:48;;;;;;;40.83;23.98;;;;;;;;;;5007748;28;20041;-71
2022/12/11 10:54:36;;;;;;;27.83;17.58;;;;;;;;;;5008571;28;20049;-71
2022/12/11 10:57:03;;;;;;;25.23;15.55;;;;;;;;;;5006503;28;20647;-72
2022/12/11 10:59:32;;;;;;;33.22;19.67;;;;;;;;;;5007037;28;20411;-73
2022/12/11 11:01:58;;;;;;;34.65;20.52;;;;;;;;;;5009174;28;20038;-71
2022/12/11 11:04:31;;;;;;;26.35;17.42;;;;;;;;;;5007653;28;20052;-72
2022/12/11 11:07:01;;;;;;;30.30;19.45;;;;;;;;;;5005888;28;20065;-72
2022/12/11 11:09:28;;;;;;;26.98;17.58;;;;;;;;;;5005877;28;20132;-72
2022/12/11 11:11:54;;;;;;;30.88;17.05;;;;;;;;;;5005670;28;20025;-72
2022/12/11 11:14:21;;;;;;;34.20;19.67;;;;;;;;;;5007876;28;20650;-72
2022/12/11 11:16:48;;;;;;;24.90;15.73;;;;;;;;;;5000115;28;20111;-72
2022/12/11 11:19:24;;;;;;;27.27;14.55;;;;;;;;;;5007547;28;20041;-72
2022/12/11 11:21:58;;;;;;;42.20;23.95;;;;;;;;;;5007550;28;20065;-72
2022/12/11 11:24:38;;;;;;;25.58;15.32;;;;;;;;;;5007679;28;20466;-72
2022/12/11 11:27:11;;;;;;;32.37;17.70;;;;;;;;;;5007625;28;20526;-73
2022/12/11 11:29:37;;;;;;;27.83;15.05;;;;;;;;;;5007645;28;20331;-73
2022/12/11 11:32:23;;;;;;;32.33;20.52;;;;;;;;;;5007670;28;20038;-73
2022/12/11 11:34:49;;;;;;;35.38;21.42;;;;;;;;;;5009073;28;20514;-72
2022/12/11 11:37:30;;;;;;;23.10;14.38;;;;;;;;;;4988120;28;20513;-72
2022/12/11 11:39:58;;;;;;;32.50;20.77;;;;;;;;;;5006751;28;20128;-71
2022/12/11 11:42:43;;;;;;;31.63;17.00;;;;;;;;;;5007924;28;20045;-73
2022/12/11 11:45:16;;;;;;;29.02;15.35;;;;;;;;;;5007161;28;20042;-72
2022/12/11 11:47:56;;;;;;;35.95;19.10;;;;;;;;;;5008628;28;20042;-72
2022/12/11 11:50:24;;;;;;;27.02;14.63;;;;;;;;;;5008437;28;20533;-71
2022/12/11 11:52:59;;;;;;;27.45;15.32;;;;;;;;;;5007322;28;20042;-72
2022/12/11 11:55:43;;;;;;;29.48;18.63;;;;;;;;;;5006896;28;20085;-71
2022/12/11 11:58:13;;;;;;;26.23;15.38;;;;;;;;;;5006885;28;20034;-72
2022/12/11 12:00:39;;;;;;;28.42;15.50;;;;;;;;;;5005993;28;20053;-72
2022/12/11 12:03:09;;;;;;;28.83;15.32;;;;;;;;;;5005333;28;20049;-72
2022/12/11 12:05:38;;;;;;;34.28;19.52;;;;;;;;;;5007107;28;20433;-72
2022/12/11 12:08:27;;;;;;;21.25;12.23;;;;;;;;;;5006799;28;20050;-72
2022/12/11 12:10:55;;;;;;;20.85;15.38;;;;;;;;;;5005538;28;20072;-72
2022/12/11 12:13:25;;;;;;;23.00;15.38;;;;;;;;;;5008026;28;20037;-72
2022/12/11 12:16:00;;;;;;;24.02;15.85;;;;;;;;;;5008070;28;20510;-72
2022/12/11 12:18:45;;;;;;;29.33;18.40;;;;;;;;;;5006797;28;20465;-71
2022/12/11 12:21:31;;;;;;;13.98;9.25;;;;;;;;;;5006496;28;20046;-72
2022/12/11 12:24:03;;;;;;;19.17;12.52;;;;;;;;;;4990448;28;20653;-71
2022/12/11 12:26:32;;;;;;;20.63;13.88;;;;;;;;;;5005702;28;20026;-73
2022/12/11 12:29:20;;;;;;;15.40;10.82;;;;;;;;;;5004218;28;20061;-71
2022/12/11 12:31:55;;;;;;;26.20;19.60;;;;;;;;;;5004517;28;20794;-72
2022/12/11 12:34:25;;;;;;;18.35;12.75;;;;;;;;;;4990087;28;20057;-72
2022/12/11 12:37:10;;;;;;;23.02;19.60;;;;;;;;;;5007629;28;20053;-78
2022/12/11 12:39:53;;;;;;;26.17;18.60;;;;;;;;;;5004913;28;20033;-78
2022/12/11 12:42:25;;;;;;;25.05;18.10;;;;;;;;;;5000215;28;20332;-78
2022/12/11 12:45:09;;;;;;;15.38;11.70;;;;;;;;;;5005833;28;20516;-79
2022/12/11 12:47:36;;;;;;;23.27;16.00;;;;;;;;;;5009210;28;20052;-80
2022/12/11 12:50:02;;;;;;;23.55;16.02;;;;;;;;;;5011058;28;20033;-81
2022/12/11 12:52:30;;;;;;;13.10;9.00;;;;;;;;;;5010040;28;20050;-79
2022/12/11 12:55:14;;;;;;;18.15;13.05;;;;;;;;;;5009474;28;20134;-80
2022/12/11 12:57:52;;;;;;;22.45;12.57;;;;;;;;;;5011662;28;20609;-80
2022/12/11 13:00:28;;;;;;;25.95;15.63;;;;;;;;;;5009578;28;20587;-79
2022/12/11 13:02:55;;;;;;;26.02;18.38;;;;;;;;;;5010716;28;20038;-80
2022/12/11 13:05:22;;;;;;;16.48;11.65;;;;;;;;;;4996091;28;20041;-81
2022/12/11 13:07:52;;;;;;;25.63;15.15;;;;;;;;;;4999325;28;20052;-80
2022/12/11 13:10:22;;;;;;;23.58;17.65;;;;;;;;;;5012821;28;20568;-78
2022/12/11 13:12:48;;;;;;;22.83;13.52;;;;;;;;;;4998495;28;20042;-76
2022/12/11 13:15:24;;;;;;;22.75;15.07;;;;;;;;;;4981983;28;20216;-78
2022/12/11 13:17:50;;;;;;;24.38;14.93;;;;;;;;;;4971300;28;20065;-79
2022/12/11 13:20:17;;;;;;;27.23;20.38;;;;;;;;;;5012001;28;20034;-85
2022/12/11 13:23:02;;;;;;;19.65;14.85;;;;;;;;;;5032400;28;20061;-81
2022/12/11 13:25:29;;;;;;;20.52;13.50;;;;;;;;;;5025261;28;20065;-82
2022/12/11 13:28:20;;;;;;;24.48;17.15;;;;;;;;;;4984443;28;20038;-79
2022/12/11 13:31:07;;;;;;;26.58;17.00;;;;;;;;;;5007293;28;20037;-80
2022/12/11 13:33:37;;;;;;;25.25;19.00;;;;;;;;;;4999657;28;20049;-77
2022/12/11 13:36:09;;;;;;;24.13;14.63;;;;;;;;;;5005689;28;20050;-78
2022/12/11 13:38:35;;;;;;;13.20;10.38;;;;;;;;;;5012040;28;20038;-79
2022/12/11 13:41:04;;;;;;;24.90;18.52;;;;;;;;;;5010645;28;20044;-80
2022/12/11 13:43:30;;;;;;;23.20;17.10;;;;;;;;;;4983303;28;20414;-80
2022/12/11 13:45:57;;;;;;;29.15;18.65;;;;;;;;;;5017458;28;20034;-82
2022/12/11 13:48:24;;;;;;;27.70;19.00;;;;;;;;;;4997221;28;20065;-82
2022/12/11 13:50:51;;;;;;;24.27;17.42;;;;;;;;;;5020037;28;20034;-80
2022/12/11 13:53:17;;;;;;;23.67;18.00;;;;;;;;;;5012468;28;20037;-79
2022/12/11 13:55:44;;;;;;;20.48;15.07;;;;;;;;;;4997249;28;20133;-78
2022/12/11 13:58:20;;;;;;;25.17;18.38;;;;;;;;;;4992717;28;20038;-81
2022/12/11 14:00:58;;;;;;;12.60;9.13;;;;;;;;;;5011715;28;20038;-81
2022/12/11 14:03:24;;;;;;;22.45;17.80;;;;;;;;;;5017535;28;20107;-80
2022/12/11 14:05:50;;;;;;;19.63;14.52;;;;;;;;;;5009666;28;20092;-79
2022/12/11 14:08:18;;;;;;;23.63;14.68;;;;;;;;;;4995131;28;20081;-78
2022/12/11 14:10:44;;;;;;;23.67;17.63;;;;;;;;;;4974083;28;20046;-77
2022/12/11 14:13:16;;;;;;;10.63;9.18;;;;;;;;;;4973886;28;20054;-78
2022/12/11 14:15:43;;;;;;;17.27;13.50;;;;;;;;;;4995783;28;20141;-78
2022/12/11 14:18:12;;;;;;;18.77;15.75;;;;;;;;;;4977114;28;20057;-79
2022/12/11 14:20:38;;;;;;;18.10;14.23;;;;;;;;;;4989545;28;20042;-78
2022/12/11 14:23:04;;;;;;;23.85;17.35;;;;;;;;;;4998169;28;20042;-78
2022/12/11 14:25:31;;;;;;;15.45;13.48;;;;;;;;;;4980647;28;20132;-79
2022/12/11 14:28:00;;;;;;;12.00;7.97;;;;;;;;;;4991809;28;20053;-78
2022/12/11 14:30:27;;;;;;;16.67;11.88;;;;;;;;;;4992592;28;20081;-80
2022/12/11 14:32:56;;;;;;;12.98;10.55;;;;;;;;;;5001536;28;20037;-78